sensor_id;sensor_type;location;lat;lon;timestamp;temperature;humidity
19847;DHT22;10084;50.518;8.588;2023-04-15T00:00:40;6.40;62.40
19847;DHT22;10084;50.518;8.588;2023-04-15T00:03:06;6.30;62.40
19847;DHT22;10084;50.518;8.588;2023-04-15T00:05:32;6.30;62.50
19847;DHT22;10084;50.518;8.588;2023-04-15T00:07:59;6.30;62.60
19847;DHT22;10084;50.518;8.588;2023-04-15T00:10:26;6.30;62.70
19847;DHT22;10084;50.518;8.588;2023-04-15T00:12:52;6.20;62.70
19847;DHT22;10084;50.518;8.588;2023-04-15T00:15:18;6.20;62.70
19847;DHT22;10084;50.518;8.588;2023-04-15T00:17:44;6.20;62.80
19847;DHT22;10084;50.518;8.588;2023-04-15T00:20:10;6.10;62.90
19847;DHT22;10084;50.518;8.588;2023-04-15T00:22:36;6.10;63.00
19847;DHT22;10084;50.518;8.588;2023-04-15T00:25:02;6.00;63.10
19847;DHT22;10084;50.518;8.588;2023-04-15T00:27:28;6.00;63.30
19847;DHT22;10084;50.518;8.588;2023-04-15T00:29:55;6.00;63.30
19847;DHT22;10084;50.518;8.588;2023-04-15T00:32:21;6.00;63.30
19847;DHT22;10084;50.518;8.588;2023-04-15T00:34:46;5.90;63.40
19847;DHT22;10084;50.518;8.588;2023-04-15T00:37:12;5.90;63.40
19847;DHT22;10084;50.518;8.588;2023-04-15T00:39:38;5.90;63.40
19847;DHT22;10084;50.518;8.588;2023-04-15T00:42:04;5.80;63.50
19847;DHT22;10084;50.518;8.588;2023-04-15T00:44:30;5.80;63.50
19847;DHT22;10084;50.518;8.588;2023-04-15T00:46:57;5.70;63.50
19847;DHT22;10084;50.518;8.588;2023-04-15T00:49:23;5.70;63.60
19847;DHT22;10084;50.518;8.588;2023-04-15T00:51:50;5.70;63.70
19847;DHT22;10084;50.518;8.588;2023-04-15T00:54:16;5.60;63.70
19847;DHT22;10084;50.518;8.588;2023-04-15T00:56:42;5.60;63.90
19847;DHT22;10084;50.518;8.588;2023-04-15T00:59:08;5.50;63.90
19847;DHT22;10084;50.518;8.588;2023-04-15T01:01:35;5.50;64.10
19847;DHT22;10084;50.518;8.588;2023-04-15T01:04:02;5.50;64.20
19847;DHT22;10084;50.518;8.588;2023-04-15T01:06:29;5.50;64.40
19847;DHT22;10084;50.518;8.588;2023-04-15T01:08:57;5.50;64.40
19847;DHT22;10084;50.518;8.588;2023-04-15T01:11:24;5.50;64.50
19847;DHT22;10084;50.518;8.588;2023-04-15T01:13:51;5.50;64.50
19847;DHT22;10084;50.518;8.588;2023-04-15T01:16:18;5.50;64.50
19847;DHT22;10084;50.518;8.588;2023-04-15T01:18:44;5.50;64.50
19847;DHT22;10084;50.518;8.588;2023-04-15T01:21:10;5.50;64.60
19847;DHT22;10084;50.518;8.588;2023-04-15T01:23:36;5.50;64.70
19847;DHT22;10084;50.518;8.588;2023-04-15T01:26:05;5.50;64.70
19847;DHT22;10084;50.518;8.588;2023-04-15T01:28:33;5.50;64.80
19847;DHT22;10084;50.518;8.588;2023-04-15T01:31:07;5.50;64.80
19847;DHT22;10084;50.518;8.588;2023-04-15T01:33:36;5.50;64.80
19847;DHT22;10084;50.518;8.588;2023-04-15T01:36:20;5.50;64.80
19847;DHT22;10084;50.518;8.588;2023-04-15T01:38:46;5.50;64.80
19847;DHT22;10084;50.518;8.588;2023-04-15T01:41:13;5.50;64.80
19847;DHT22;10084;50.518;8.588;2023-04-15T01:43:40;5.40;64.90
19847;DHT22;10084;50.518;8.588;2023-04-15T01:46:09;5.40;65.00
19847;DHT22;10084;50.518;8.588;2023-04-15T01:48:36;5.40;65.10
19847;DHT22;10084;50.518;8.588;2023-04-15T01:51:04;5.30;65.10
19847;DHT22;10084;50.518;8.588;2023-04-15T01:53:31;5.30;65.20
19847;DHT22;10084;50.518;8.588;2023-04-15T01:55:58;5.30;65.40
19847;DHT22;10084;50.518;8.588;2023-04-15T01:58:25;5.20;65.30
19847;DHT22;10084;50.518;8.588;2023-04-15T02:00:52;5.20;65.30
19847;DHT22;10084;50.518;8.588;2023-04-15T02:03:19;5.20;65.40
19847;DHT22;10084;50.518;8.588;2023-04-15T02:05:46;5.20;65.50
19847;DHT22;10084;50.518;8.588;2023-04-15T02:08:13;5.20;65.50
19847;DHT22;10084;50.518;8.588;2023-04-15T02:10:40;5.20;65.60
19847;DHT22;10084;50.518;8.588;2023-04-15T02:13:07;5.20;65.60
19847;DHT22;10084;50.518;8.588;2023-04-15T02:15:35;5.20;65.60
19847;DHT22;10084;50.518;8.588;2023-04-15T02:18:03;5.10;65.60
19847;DHT22;10084;50.518;8.588;2023-04-15T02:20:30;5.10;65.60
19847;DHT22;10084;50.518;8.588;2023-04-15T02:22:58;5.10;65.70
19847;DHT22;10084;50.518;8.588;2023-04-15T02:25:25;5.10;65.80
19847;DHT22;10084;50.518;8.588;2023-04-15T02:27:52;5.10;65.80
19847;DHT22;10084;50.518;8.588;2023-04-15T02:30:19;5.10;65.90
19847;DHT22;10084;50.518;8.588;2023-04-15T02:32:46;5.00;65.90
19847;DHT22;10084;50.518;8.588;2023-04-15T02:35:14;5.00;66.70
19847;DHT22;10084;50.518;8.588;2023-04-15T02:37:41;5.00;66.10
19847;DHT22;10084;50.518;8.588;2023-04-15T02:40:12;5.00;66.10
19847;DHT22;10084;50.518;8.588;2023-04-15T02:42:40;4.90;66.20
19847;DHT22;10084;50.518;8.588;2023-04-15T02:45:10;4.90;66.20
19847;DHT22;10084;50.518;8.588;2023-04-15T02:47:39;4.90;66.30
19847;DHT22;10084;50.518;8.588;2023-04-15T02:50:19;4.90;66.30
19847;DHT22;10084;50.518;8.588;2023-04-15T02:53:09;4.90;66.30
19847;DHT22;10084;50.518;8.588;2023-04-15T02:55:36;4.90;66.40
19847;DHT22;10084;50.518;8.588;2023-04-15T02:58:03;4.90;66.50
19847;DHT22;10084;50.518;8.588;2023-04-15T03:00:30;4.90;66.50
19847;DHT22;10084;50.518;8.588;2023-04-15T03:03:00;4.90;66.50
19847;DHT22;10084;50.518;8.588;2023-04-15T03:05:28;4.80;66.60
19847;DHT22;10084;50.518;8.588;2023-04-15T03:07:56;4.80;66.70
19847;DHT22;10084;50.518;8.588;2023-04-15T03:10:23;4.80;66.70
19847;DHT22;10084;50.518;8.588;2023-04-15T03:12:50;4.80;66.70
19847;DHT22;10084;50.518;8.588;2023-04-15T03:15:19;4.70;66.10
19847;DHT22;10084;50.518;8.588;2023-04-15T03:17:49;4.70;66.50
19847;DHT22;10084;50.518;8.588;2023-04-15T03:20:17;4.60;66.40
19847;DHT22;10084;50.518;8.588;2023-04-15T03:22:44;4.40;66.50
19847;DHT22;10084;50.518;8.588;2023-04-15T03:25:11;4.30;66.80
19847;DHT22;10084;50.518;8.588;2023-04-15T03:27:38;4.20;67.00
19847;DHT22;10084;50.518;8.588;2023-04-15T03:30:06;4.20;67.40
19847;DHT22;10084;50.518;8.588;2023-04-15T03:32:36;4.20;67.40
19847;DHT22;10084;50.518;8.588;2023-04-15T03:35:03;4.20;67.50
19847;DHT22;10084;50.518;8.588;2023-04-15T03:37:30;4.20;67.60
19847;DHT22;10084;50.518;8.588;2023-04-15T03:39:57;4.30;67.60
19847;DHT22;10084;50.518;8.588;2023-04-15T03:42:24;4.30;67.60
19847;DHT22;10084;50.518;8.588;2023-04-15T03:44:51;4.30;67.50
19847;DHT22;10084;50.518;8.588;2023-04-15T03:47:18;4.30;67.50
19847;DHT22;10084;50.518;8.588;2023-04-15T03:49:45;4.40;67.60
19847;DHT22;10084;50.518;8.588;2023-04-15T03:52:12;4.40;67.60
19847;DHT22;10084;50.518;8.588;2023-04-15T03:54:39;4.40;67.60
19847;DHT22;10084;50.518;8.588;2023-04-15T03:57:06;4.40;67.60
19847;DHT22;10084;50.518;8.588;2023-04-15T03:59:33;4.40;67.60
19847;DHT22;10084;50.518;8.588;2023-04-15T04:02:00;4.40;67.70
19847;DHT22;10084;50.518;8.588;2023-04-15T04:04:27;4.40;67.80
19847;DHT22;10084;50.518;8.588;2023-04-15T04:06:54;4.40;67.80
19847;DHT22;10084;50.518;8.588;2023-04-15T04:09:21;4.40;67.90
19847;DHT22;10084;50.518;8.588;2023-04-15T04:11:48;4.40;68.00
19847;DHT22;10084;50.518;8.588;2023-04-15T04:14:15;4.40;68.00
19847;DHT22;10084;50.518;8.588;2023-04-15T04:16:42;4.50;68.20
19847;DHT22;10084;50.518;8.588;2023-04-15T04:19:09;4.50;68.20
19847;DHT22;10084;50.518;8.588;2023-04-15T04:21:36;4.50;68.10
19847;DHT22;10084;50.518;8.588;2023-04-15T04:24:03;4.50;68.20
19847;DHT22;10084;50.518;8.588;2023-04-15T04:26:30;4.50;68.20
19847;DHT22;10084;50.518;8.588;2023-04-15T04:28:57;4.50;68.30
19847;DHT22;10084;50.518;8.588;2023-04-15T04:31:23;4.60;68.30
19847;DHT22;10084;50.518;8.588;2023-04-15T04:33:50;4.60;68.30
19847;DHT22;10084;50.518;8.588;2023-04-15T04:36:17;4.60;68.10
19847;DHT22;10084;50.518;8.588;2023-04-15T04:38:44;4.50;67.90
19847;DHT22;10084;50.518;8.588;2023-04-15T04:41:14;4.50;68.00
19847;DHT22;10084;50.518;8.588;2023-04-15T04:43:41;4.50;68.10
19847;DHT22;10084;50.518;8.588;2023-04-15T04:46:08;4.50;68.30
19847;DHT22;10084;50.518;8.588;2023-04-15T04:48:36;4.50;68.30
19847;DHT22;10084;50.518;8.588;2023-04-15T04:51:03;4.50;68.50
19847;DHT22;10084;50.518;8.588;2023-04-15T04:53:30;4.50;68.50
19847;DHT22;10084;50.518;8.588;2023-04-15T04:55:57;4.50;68.60
19847;DHT22;10084;50.518;8.588;2023-04-15T04:58:24;4.50;68.60
19847;DHT22;10084;50.518;8.588;2023-04-15T05:00:51;4.60;68.80
19847;DHT22;10084;50.518;8.588;2023-04-15T05:03:18;4.60;68.70
19847;DHT22;10084;50.518;8.588;2023-04-15T05:05:45;4.70;68.60
19847;DHT22;10084;50.518;8.588;2023-04-15T05:08:15;4.70;68.70
19847;DHT22;10084;50.518;8.588;2023-04-15T05:10:42;4.70;68.70
19847;DHT22;10084;50.518;8.588;2023-04-15T05:13:09;4.70;68.70
19847;DHT22;10084;50.518;8.588;2023-04-15T05:15:36;4.80;68.80
19847;DHT22;10084;50.518;8.588;2023-04-15T05:18:05;4.80;68.90
19847;DHT22;10084;50.518;8.588;2023-04-15T05:20:32;4.80;68.90
19847;DHT22;10084;50.518;8.588;2023-04-15T05:22:59;4.90;68.90
19847;DHT22;10084;50.518;8.588;2023-04-15T05:25:27;4.90;69.00
19847;DHT22;10084;50.518;8.588;2023-04-15T05:27:54;4.90;69.10
19847;DHT22;10084;50.518;8.588;2023-04-15T05:30:21;5.00;69.30
19847;DHT22;10084;50.518;8.588;2023-04-15T05:32:48;5.00;69.30
19847;DHT22;10084;50.518;8.588;2023-04-15T05:35:15;5.10;69.30
19847;DHT22;10084;50.518;8.588;2023-04-15T05:37:43;5.20;69.40
19847;DHT22;10084;50.518;8.588;2023-04-15T05:40:10;5.30;69.40
19847;DHT22;10084;50.518;8.588;2023-04-15T05:42:37;5.40;69.40
19847;DHT22;10084;50.518;8.588;2023-04-15T05:45:05;5.50;69.50
19847;DHT22;10084;50.518;8.588;2023-04-15T05:47:35;5.60;69.50
19847;DHT22;10084;50.518;8.588;2023-04-15T05:50:03;5.70;69.60
19847;DHT22;10084;50.518;8.588;2023-04-15T05:52:31;5.80;69.60
19847;DHT22;10084;50.518;8.588;2023-04-15T05:54:58;5.90;69.50
19847;DHT22;10084;50.518;8.588;2023-04-15T05:57:25;5.90;69.60
19847;DHT22;10084;50.518;8.588;2023-04-15T05:59:52;6.00;69.60
19847;DHT22;10084;50.518;8.588;2023-04-15T06:02:19;6.20;69.70
19847;DHT22;10084;50.518;8.588;2023-04-15T06:04:46;6.20;69.60
19847;DHT22;10084;50.518;8.588;2023-04-15T06:07:14;6.30;69.60
19847;DHT22;10084;50.518;8.588;2023-04-15T06:09:41;6.40;69.70
19847;DHT22;10084;50.518;8.588;2023-04-15T06:12:08;6.50;69.70
19847;DHT22;10084;50.518;8.588;2023-04-15T06:14:38;6.60;69.70
19847;DHT22;10084;50.518;8.588;2023-04-15T06:17:06;6.80;69.80
19847;DHT22;10084;50.518;8.588;2023-04-15T06:19:33;6.90;69.80
19847;DHT22;10084;50.518;8.588;2023-04-15T06:22:02;7.10;69.80
19847;DHT22;10084;50.518;8.588;2023-04-15T06:24:29;7.20;69.60
19847;DHT22;10084;50.518;8.588;2023-04-15T06:26:57;7.40;69.50
19847;DHT22;10084;50.518;8.588;2023-04-15T06:29:24;7.50;69.50
19847;DHT22;10084;50.518;8.588;2023-04-15T06:31:51;7.60;69.40
19847;DHT22;10084;50.518;8.588;2023-04-15T06:34:19;7.80;69.30
19847;DHT22;10084;50.518;8.588;2023-04-15T06:36:46;7.90;69.30
19847;DHT22;10084;50.518;8.588;2023-04-15T06:39:13;8.00;69.30
19847;DHT22;10084;50.518;8.588;2023-04-15T06:41:40;8.10;69.30
19847;DHT22;10084;50.518;8.588;2023-04-15T06:44:08;8.30;69.30
19847;DHT22;10084;50.518;8.588;2023-04-15T06:46:35;8.40;69.30
19847;DHT22;10084;50.518;8.588;2023-04-15T06:49:02;8.50;69.20
19847;DHT22;10084;50.518;8.588;2023-04-15T06:51:29;8.70;69.10
19847;DHT22;10084;50.518;8.588;2023-04-15T06:53:57;8.80;69.10
19847;DHT22;10084;50.518;8.588;2023-04-15T06:56:24;8.90;69.00
19847;DHT22;10084;50.518;8.588;2023-04-15T06:58:51;9.00;69.00
19847;DHT22;10084;50.518;8.588;2023-04-15T07:01:18;9.10;69.10
19847;DHT22;10084;50.518;8.588;2023-04-15T07:03:45;9.20;69.00
19847;DHT22;10084;50.518;8.588;2023-04-15T07:06:13;9.30;69.00
19847;DHT22;10084;50.518;8.588;2023-04-15T07:08:40;9.50;69.80
19847;DHT22;10084;50.518;8.588;2023-04-15T07:11:07;9.70;69.20
19847;DHT22;10084;50.518;8.588;2023-04-15T07:13:34;10.00;69.20
19847;DHT22;10084;50.518;8.588;2023-04-15T07:16:02;10.20;69.00
19847;DHT22;10084;50.518;8.588;2023-04-15T07:18:29;10.60;68.90
19847;DHT22;10084;50.518;8.588;2023-04-15T07:20:56;10.90;68.80
19847;DHT22;10084;50.518;8.588;2023-04-15T07:23:23;11.20;68.50
19847;DHT22;10084;50.518;8.588;2023-04-15T07:25:50;11.50;68.40
19847;DHT22;10084;50.518;8.588;2023-04-15T07:28:17;11.90;68.10
19847;DHT22;10084;50.518;8.588;2023-04-15T07:30:44;12.20;67.60
19847;DHT22;10084;50.518;8.588;2023-04-15T07:33:12;12.50;67.30
19847;DHT22;10084;50.518;8.588;2023-04-15T07:35:39;12.80;66.90
19847;DHT22;10084;50.518;8.588;2023-04-15T07:38:06;13.00;66.20
19847;DHT22;10084;50.518;8.588;2023-04-15T07:40:33;13.10;65.80
19847;DHT22;10084;50.518;8.588;2023-04-15T07:43:00;13.20;65.50
19847;DHT22;10084;50.518;8.588;2023-04-15T07:45:27;13.30;65.30
19847;DHT22;10084;50.518;8.588;2023-04-15T07:47:54;13.30;65.00
19847;DHT22;10084;50.518;8.588;2023-04-15T07:50:22;13.30;64.80
19847;DHT22;10084;50.518;8.588;2023-04-15T07:52:49;13.30;64.50
19847;DHT22;10084;50.518;8.588;2023-04-15T07:55:18;13.30;64.40
19847;DHT22;10084;50.518;8.588;2023-04-15T07:57:47;13.20;64.30
19847;DHT22;10084;50.518;8.588;2023-04-15T08:00:15;13.20;64.30
19847;DHT22;10084;50.518;8.588;2023-04-15T08:02:42;13.10;64.20
19847;DHT22;10084;50.518;8.588;2023-04-15T08:05:09;13.10;64.20
19847;DHT22;10084;50.518;8.588;2023-04-15T08:07:37;13.10;64.20
19847;DHT22;10084;50.518;8.588;2023-04-15T08:10:04;13.00;64.40
19847;DHT22;10084;50.518;8.588;2023-04-15T08:12:32;13.00;64.80
19847;DHT22;10084;50.518;8.588;2023-04-15T08:14:59;13.10;65.40
19847;DHT22;10084;50.518;8.588;2023-04-15T08:17:26;13.30;65.90
19847;DHT22;10084;50.518;8.588;2023-04-15T08:20:02;13.70;66.10
19847;DHT22;10084;50.518;8.588;2023-04-15T08:22:30;14.10;65.80
19847;DHT22;10084;50.518;8.588;2023-04-15T08:24:57;14.40;65.30
19847;DHT22;10084;50.518;8.588;2023-04-15T08:27:24;14.60;64.70
19847;DHT22;10084;50.518;8.588;2023-04-15T08:29:50;14.80;63.90
19847;DHT22;10084;50.518;8.588;2023-04-15T08:32:17;14.70;63.70
19847;DHT22;10084;50.518;8.588;2023-04-15T08:34:44;14.80;64.10
19847;DHT22;10084;50.518;8.588;2023-04-15T08:37:11;14.90;64.30
19847;DHT22;10084;50.518;8.588;2023-04-15T08:39:39;15.20;64.30
19847;DHT22;10084;50.518;8.588;2023-04-15T08:42:11;15.50;64.30
19847;DHT22;10084;50.518;8.588;2023-04-15T08:44:42;15.90;63.50
19847;DHT22;10084;50.518;8.588;2023-04-15T08:47:12;16.00;62.40
19847;DHT22;10084;50.518;8.588;2023-04-15T08:49:40;15.90;62.00
19847;DHT22;10084;50.518;8.588;2023-04-15T08:52:08;15.80;61.90
19847;DHT22;10084;50.518;8.588;2023-04-15T08:54:36;15.70;62.00
19847;DHT22;10084;50.518;8.588;2023-04-15T08:57:05;15.60;62.10
19847;DHT22;10084;50.518;8.588;2023-04-15T08:59:32;15.60;62.00
19847;DHT22;10084;50.518;8.588;2023-04-15T09:01:59;15.50;62.10
19847;DHT22;10084;50.518;8.588;2023-04-15T09:04:27;15.40;62.10
19847;DHT22;10084;50.518;8.588;2023-04-15T09:06:54;15.40;62.10
19847;DHT22;10084;50.518;8.588;2023-04-15T09:09:21;15.20;61.90
19847;DHT22;10084;50.518;8.588;2023-04-15T09:11:48;15.10;61.80
19847;DHT22;10084;50.518;8.588;2023-04-15T09:14:17;15.00;61.70
19847;DHT22;10084;50.518;8.588;2023-04-15T09:17:01;14.80;61.60
19847;DHT22;10084;50.518;8.588;2023-04-15T09:19:29;14.60;61.60
19847;DHT22;10084;50.518;8.588;2023-04-15T09:21:58;14.30;61.70
19847;DHT22;10084;50.518;8.588;2023-04-15T09:24:32;14.10;61.80
19847;DHT22;10084;50.518;8.588;2023-04-15T09:27:02;13.90;61.80
19847;DHT22;10084;50.518;8.588;2023-04-15T09:29:29;13.70;61.80
19847;DHT22;10084;50.518;8.588;2023-04-15T09:31:56;13.50;61.90
19847;DHT22;10084;50.518;8.588;2023-04-15T09:34:34;13.40;62.20
19847;DHT22;10084;50.518;8.588;2023-04-15T09:37:02;13.20;62.30
19847;DHT22;10084;50.518;8.588;2023-04-15T09:39:50;13.10;62.50
19847;DHT22;10084;50.518;8.588;2023-04-15T09:42:17;13.10;62.70
19847;DHT22;10084;50.518;8.588;2023-04-15T09:44:50;13.10;62.90
19847;DHT22;10084;50.518;8.588;2023-04-15T09:47:31;13.10;62.80
19847;DHT22;10084;50.518;8.588;2023-04-15T09:49:59;13.10;62.80
19847;DHT22;10084;50.518;8.588;2023-04-15T09:52:27;13.20;62.80
19847;DHT22;10084;50.518;8.588;2023-04-15T09:54:58;13.20;62.80
19847;DHT22;10084;50.518;8.588;2023-04-15T09:57:33;13.20;62.70
19847;DHT22;10084;50.518;8.588;2023-04-15T10:00:06;13.30;62.80
19847;DHT22;10084;50.518;8.588;2023-04-15T10:02:34;13.40;62.70
19847;DHT22;10084;50.518;8.588;2023-04-15T10:05:02;13.50;62.50
19847;DHT22;10084;50.518;8.588;2023-04-15T10:07:29;13.60;62.40
19847;DHT22;10084;50.518;8.588;2023-04-15T10:09:58;13.70;62.30
19847;DHT22;10084;50.518;8.588;2023-04-15T10:12:26;13.90;62.20
19847;DHT22;10084;50.518;8.588;2023-04-15T10:15:03;14.00;61.90
19847;DHT22;10084;50.518;8.588;2023-04-15T10:17:32;14.10;61.80
19847;DHT22;10084;50.518;8.588;2023-04-15T10:20:02;14.10;61.50
19847;DHT22;10084;50.518;8.588;2023-04-15T10:22:31;14.10;61.20
19847;DHT22;10084;50.518;8.588;2023-04-15T10:24:58;14.10;61.30
19847;DHT22;10084;50.518;8.588;2023-04-15T10:27:26;14.00;61.30
19847;DHT22;10084;50.518;8.588;2023-04-15T10:29:55;13.90;61.40
19847;DHT22;10084;50.518;8.588;2023-04-15T10:32:23;13.80;61.40
19847;DHT22;10084;50.518;8.588;2023-04-15T10:34:51;13.70;61.60
19847;DHT22;10084;50.518;8.588;2023-04-15T10:37:32;13.60;61.90
19847;DHT22;10084;50.518;8.588;2023-04-15T10:39:59;13.50;62.80
19847;DHT22;10084;50.518;8.588;2023-04-15T10:42:33;13.40;62.30
19847;DHT22;10084;50.518;8.588;2023-04-15T10:45:00;13.30;62.60
19847;DHT22;10084;50.518;8.588;2023-04-15T10:47:27;13.30;62.80
19847;DHT22;10084;50.518;8.588;2023-04-15T10:49:59;13.20;63.10
19847;DHT22;10084;50.518;8.588;2023-04-15T10:52:27;13.20;63.40
19847;DHT22;10084;50.518;8.588;2023-04-15T10:55:12;13.10;63.40
19847;DHT22;10084;50.518;8.588;2023-04-15T10:57:41;13.10;63.50
19847;DHT22;10084;50.518;8.588;2023-04-15T11:00:09;13.10;63.70
19847;DHT22;10084;50.518;8.588;2023-04-15T11:02:59;13.10;63.90
19847;DHT22;10084;50.518;8.588;2023-04-15T11:08:11;13.10;64.20
19847;DHT22;10084;50.518;8.588;2023-04-15T11:13:15;13.10;64.40
19847;DHT22;10084;50.518;8.588;2023-04-15T11:15:44;13.00;64.50
19847;DHT22;10084;50.518;8.588;2023-04-15T11:18:19;13.00;64.60
19847;DHT22;10084;50.518;8.588;2023-04-15T11:20:48;12.90;64.80
19847;DHT22;10084;50.518;8.588;2023-04-15T11:23:42;12.90;65.00
19847;DHT22;10084;50.518;8.588;2023-04-15T11:26:12;12.80;65.30
19847;DHT22;10084;50.518;8.588;2023-04-15T11:28:41;12.80;65.50
19847;DHT22;10084;50.518;8.588;2023-04-15T11:31:16;12.70;65.60
19847;DHT22;10084;50.518;8.588;2023-04-15T11:33:54;12.70;65.70
19847;DHT22;10084;50.518;8.588;2023-04-15T11:36:27;12.60;65.80
19847;DHT22;10084;50.518;8.588;2023-04-15T11:38:54;12.50;66.00
19847;DHT22;10084;50.518;8.588;2023-04-15T11:41:22;12.50;66.20
19847;DHT22;10084;50.518;8.588;2023-04-15T11:43:50;12.40;66.30
19847;DHT22;10084;50.518;8.588;2023-04-15T11:46:17;12.40;66.50
19847;DHT22;10084;50.518;8.588;2023-04-15T11:48:46;12.40;66.70
19847;DHT22;10084;50.518;8.588;2023-04-15T11:51:13;12.40;66.80
19847;DHT22;10084;50.518;8.588;2023-04-15T11:53:40;12.40;66.80
19847;DHT22;10084;50.518;8.588;2023-04-15T11:56:08;12.40;66.90
19847;DHT22;10084;50.518;8.588;2023-04-15T11:58:35;12.40;66.90
19847;DHT22;10084;50.518;8.588;2023-04-15T12:01:05;12.40;67.00
19847;DHT22;10084;50.518;8.588;2023-04-15T12:03:41;12.40;67.10
19847;DHT22;10084;50.518;8.588;2023-04-15T12:16:23;12.20;67.20
19847;DHT22;10084;50.518;8.588;2023-04-15T12:18:55;12.20;67.30
19847;DHT22;10084;50.518;8.588;2023-04-15T12:21:22;12.10;67.50
19847;DHT22;10084;50.518;8.588;2023-04-15T12:23:53;12.10;67.70
19847;DHT22;10084;50.518;8.588;2023-04-15T12:26:26;12.10;67.70
19847;DHT22;10084;50.518;8.588;2023-04-15T12:28:54;12.10;67.70
19847;DHT22;10084;50.518;8.588;2023-04-15T12:31:20;12.10;67.70
19847;DHT22;10084;50.518;8.588;2023-04-15T12:33:47;12.10;67.60
19847;DHT22;10084;50.518;8.588;2023-04-15T12:36:14;12.10;67.80
19847;DHT22;10084;50.518;8.588;2023-04-15T12:38:40;12.00;67.90
19847;DHT22;10084;50.518;8.588;2023-04-15T12:41:06;12.00;68.10
19847;DHT22;10084;50.518;8.588;2023-04-15T12:43:32;12.00;68.10
19847;DHT22;10084;50.518;8.588;2023-04-15T12:45:57;12.10;68.30
19847;DHT22;10084;50.518;8.588;2023-04-15T12:48:23;12.10;68.20
19847;DHT22;10084;50.518;8.588;2023-04-15T12:50:49;12.10;68.20
19847;DHT22;10084;50.518;8.588;2023-04-15T12:53:15;12.20;68.20
19847;DHT22;10084;50.518;8.588;2023-04-15T12:55:40;12.10;68.10
19847;DHT22;10084;50.518;8.588;2023-04-15T12:58:06;12.20;68.30
19847;DHT22;10084;50.518;8.588;2023-04-15T13:00:35;12.10;68.20
19847;DHT22;10084;50.518;8.588;2023-04-15T13:03:01;12.10;68.20
19847;DHT22;10084;50.518;8.588;2023-04-15T13:05:28;12.00;68.30
19847;DHT22;10084;50.518;8.588;2023-04-15T13:07:53;11.90;68.30
19847;DHT22;10084;50.518;8.588;2023-04-15T13:10:19;11.90;68.40
19847;DHT22;10084;50.518;8.588;2023-04-15T13:12:44;11.80;68.60
19847;DHT22;10084;50.518;8.588;2023-04-15T13:15:11;11.80;68.80
19847;DHT22;10084;50.518;8.588;2023-04-15T13:17:37;11.80;68.30
19847;DHT22;10084;50.518;8.588;2023-04-15T13:20:04;11.80;68.90
19847;DHT22;10084;50.518;8.588;2023-04-15T13:22:30;11.70;68.90
19847;DHT22;10084;50.518;8.588;2023-04-15T13:24:56;11.70;69.20
19847;DHT22;10084;50.518;8.588;2023-04-15T13:27:21;11.70;69.40
19847;DHT22;10084;50.518;8.588;2023-04-15T13:29:47;11.70;69.40
19847;DHT22;10084;50.518;8.588;2023-04-15T13:32:13;11.80;69.60
19847;DHT22;10084;50.518;8.588;2023-04-15T13:34:39;11.90;69.70
19847;DHT22;10084;50.518;8.588;2023-04-15T13:37:08;12.00;69.80
19847;DHT22;10084;50.518;8.588;2023-04-15T13:39:34;12.00;69.70
19847;DHT22;10084;50.518;8.588;2023-04-15T13:42:00;12.10;69.60
19847;DHT22;10084;50.518;8.588;2023-04-15T13:44:27;12.10;69.50
19847;DHT22;10084;50.518;8.588;2023-04-15T13:46:53;12.10;69.40
19847;DHT22;10084;50.518;8.588;2023-04-15T13:49:19;12.00;69.40
19847;DHT22;10084;50.518;8.588;2023-04-15T13:51:44;12.00;69.40
19847;DHT22;10084;50.518;8.588;2023-04-15T13:54:10;11.90;69.30
19847;DHT22;10084;50.518;8.588;2023-04-15T13:56:36;11.70;69.30
19847;DHT22;10084;50.518;8.588;2023-04-15T13:59:02;11.60;69.50
19847;DHT22;10084;50.518;8.588;2023-04-15T14:01:28;11.50;69.70
19847;DHT22;10084;50.518;8.588;2023-04-15T14:03:54;11.40;70.00
19847;DHT22;10084;50.518;8.588;2023-04-15T14:06:20;11.30;70.10
19847;DHT22;10084;50.518;8.588;2023-04-15T14:08:46;11.30;70.20
19847;DHT22;10084;50.518;8.588;2023-04-15T14:11:12;11.20;70.30
19847;DHT22;10084;50.518;8.588;2023-04-15T14:13:38;11.10;70.40
19847;DHT22;10084;50.518;8.588;2023-04-15T14:16:04;11.10;70.60
19847;DHT22;10084;50.518;8.588;2023-04-15T14:18:29;11.10;70.60
19847;DHT22;10084;50.518;8.588;2023-04-15T14:20:55;11.10;70.70
19847;DHT22;10084;50.518;8.588;2023-04-15T14:23:22;11.10;70.70
19847;DHT22;10084;50.518;8.588;2023-04-15T14:25:50;11.00;70.80
19847;DHT22;10084;50.518;8.588;2023-04-15T14:28:17;11.00;70.90
19847;DHT22;10084;50.518;8.588;2023-04-15T14:30:42;11.00;71.00
19847;DHT22;10084;50.518;8.588;2023-04-15T14:33:08;11.00;71.10
19847;DHT22;10084;50.518;8.588;2023-04-15T14:35:34;11.00;71.20
19847;DHT22;10084;50.518;8.588;2023-04-15T14:38:00;11.00;71.20
19847;DHT22;10084;50.518;8.588;2023-04-15T14:40:26;11.00;71.30
19847;DHT22;10084;50.518;8.588;2023-04-15T14:42:51;11.00;71.30
19847;DHT22;10084;50.518;8.588;2023-04-15T14:45:17;11.00;71.20
19847;DHT22;10084;50.518;8.588;2023-04-15T14:47:43;11.00;72.00
19847;DHT22;10084;50.518;8.588;2023-04-15T14:50:09;11.00;71.40
19847;DHT22;10084;50.518;8.588;2023-04-15T14:52:35;11.00;71.40
19847;DHT22;10084;50.518;8.588;2023-04-15T14:55:09;11.00;71.50
19847;DHT22;10084;50.518;8.588;2023-04-15T14:57:35;11.00;71.60
19847;DHT22;10084;50.518;8.588;2023-04-15T15:00:03;11.00;71.70
19847;DHT22;10084;50.518;8.588;2023-04-15T15:02:29;10.90;71.70
19847;DHT22;10084;50.518;8.588;2023-04-15T15:04:56;11.00;71.90
19847;DHT22;10084;50.518;8.588;2023-04-15T15:07:22;11.00;71.90
19847;DHT22;10084;50.518;8.588;2023-04-15T15:09:48;11.00;72.00
19847;DHT22;10084;50.518;8.588;2023-04-15T15:12:14;11.00;71.90
19847;DHT22;10084;50.518;8.588;2023-04-15T15:14:40;11.00;72.00
19847;DHT22;10084;50.518;8.588;2023-04-15T15:17:05;11.00;72.00
19847;DHT22;10084;50.518;8.588;2023-04-15T15:19:31;11.00;72.10
19847;DHT22;10084;50.518;8.588;2023-04-15T15:21:57;11.00;72.20
19847;DHT22;10084;50.518;8.588;2023-04-15T15:24:23;11.00;72.30
19847;DHT22;10084;50.518;8.588;2023-04-15T15:26:48;11.00;72.40
19847;DHT22;10084;50.518;8.588;2023-04-15T15:29:14;11.00;72.40
19847;DHT22;10084;50.518;8.588;2023-04-15T15:31:40;11.00;72.30
19847;DHT22;10084;50.518;8.588;2023-04-15T15:34:06;11.00;72.40
19847;DHT22;10084;50.518;8.588;2023-04-15T15:36:31;11.00;72.60
19847;DHT22;10084;50.518;8.588;2023-04-15T15:38:57;11.00;72.60
19847;DHT22;10084;50.518;8.588;2023-04-15T15:41:24;11.00;72.60
19847;DHT22;10084;50.518;8.588;2023-04-15T15:43:51;11.00;72.70
19847;DHT22;10084;50.518;8.588;2023-04-15T15:46:17;11.10;72.70
19847;DHT22;10084;50.518;8.588;2023-04-15T15:48:43;11.10;72.80
19847;DHT22;10084;50.518;8.588;2023-04-15T15:51:09;11.00;72.80
19847;DHT22;10084;50.518;8.588;2023-04-15T15:53:35;11.00;72.80
19847;DHT22;10084;50.518;8.588;2023-04-15T15:56:01;11.00;72.90